createdAt,value
2022-08-14T00:02:21.623Z,64.84
2022-08-14T00:05:28.015Z,65.12
2022-08-14T00:08:43.769Z,65.52
2022-08-14T00:11:49.443Z,65.98
2022-08-14T00:14:55.438Z,66.07
2022-08-14T00:17:59.188Z,66.27
2022-08-14T00:21:03.191Z,66.83
2022-08-14T00:24:06.694Z,67.18
2022-08-14T00:27:12.527Z,67.76
2022-08-14T00:30:17.468Z,68.01
2022-08-14T00:33:22.357Z,68.29
2022-08-14T00:36:49.246Z,68.68
2022-08-14T00:39:52.564Z,68.81
2022-08-14T00:42:56.647Z,68.68
2022-08-14T00:46:32.757Z,69.02
2022-08-14T00:49:38.011Z,69.06
2022-08-14T00:52:48.126Z,69.03
2022-08-14T00:55:56.698Z,69.24
2022-08-14T00:58:59.875Z,69.49
2022-08-14T01:02:05.906Z,69.83
2022-08-14T01:05:23.631Z,69.92
2022-08-14T01:08:51.727Z,70.38
2022-08-14T01:11:57.301Z,70.75
2022-08-14T01:15:09.322Z,71.06
2022-08-14T01:18:31.956Z,71.57
2022-08-14T01:21:46.646Z,72.13
2022-08-14T01:24:51.607Z,72.35
2022-08-14T01:27:57.514Z,72.28
2022-08-14T01:31:01.762Z,72.25
2022-08-14T01:35:20.263Z,72.40
2022-08-14T01:37:29.775Z,72.40
2022-08-14T01:40:41.684Z,72.69
2022-08-14T01:43:56.047Z,72.85
2022-08-14T01:47:05.603Z,73.34
2022-08-14T01:50:10.161Z,73.36
2022-08-14T01:53:14.669Z,73.42
2022-08-14T01:56:19.149Z,73.66
2022-08-14T01:59:25.021Z,73.53
2022-08-14T02:02:40.764Z,73.55
2022-08-14T02:05:49.643Z,73.51
2022-08-14T02:08:59.606Z,73.56
2022-08-14T02:12:04.075Z,73.53
2022-08-14T02:15:12.679Z,73.69
2022-08-14T02:18:18.827Z,73.96
2022-08-14T02:21:23.062Z,74.34
2022-08-14T02:24:38.932Z,74.58
2022-08-14T02:28:25.514Z,74.92
2022-08-14T02:31:10.899Z,74.94
2022-08-14T02:34:27.549Z,74.59
2022-08-14T02:37:47.460Z,74.57
2022-08-14T02:40:52.447Z,74.59
2022-08-14T02:44:00.918Z,74.64
2022-08-14T02:47:07.153Z,74.73
2022-08-14T02:50:27.200Z,75.24
2022-08-14T02:53:31.153Z,75.23
2022-08-14T02:57:13.774Z,75.36
2022-08-14T03:00:02.631Z,75.32
2022-08-14T03:03:10.204Z,75.46
2022-08-14T03:06:20.705Z,75.83
2022-08-14T03:10:25.189Z,76.73
2022-08-14T03:13:04.574Z,77.26
2022-08-14T03:16:19.903Z,77.84
2022-08-14T03:19:22.868Z,78.23
2022-08-14T03:22:27.633Z,78.15
2022-08-14T03:25:37.769Z,78.38
2022-08-14T03:28:43.660Z,78.51
2022-08-14T03:31:49.594Z,78.49
2022-08-14T03:34:55.634Z,78.51
2022-08-14T03:39:15.411Z,78.45
2022-08-14T03:41:36.708Z,78.54
2022-08-14T03:45:26.318Z,78.85
2022-08-14T03:48:30.653Z,79.09
2022-08-14T03:51:36.184Z,79.31
2022-08-14T03:54:39.503Z,79.35
2022-08-14T03:57:43.489Z,79.61
2022-08-14T04:00:48.596Z,79.89
2022-08-14T04:03:55.825Z,79.97
2022-08-14T04:07:01.563Z,80.13
2022-08-14T04:10:07.267Z,80.68
2022-08-14T04:13:12.897Z,80.87
2022-08-14T04:16:20.668Z,80.95
2022-08-14T04:19:24.621Z,81.04
2022-08-14T04:22:32.318Z,80.47
2022-08-14T04:25:37.875Z,80.24
2022-08-14T04:29:08.463Z,79.61
2022-08-14T04:32:58.330Z,79.81
2022-08-14T04:35:55.614Z,80.30
2022-08-14T04:39:14.531Z,80.24
2022-08-14T04:42:38.271Z,79.39
2022-08-14T04:45:51.034Z,79.04
2022-08-14T04:48:55.584Z,79.46
2022-08-14T04:52:15.400Z,80.01
2022-08-14T04:55:27.809Z,80.14
2022-08-14T04:58:33.788Z,80.00
2022-08-14T05:01:39.961Z,79.99
2022-08-14T05:04:45.318Z,79.50
2022-08-14T05:08:09.810Z,79.95
2022-08-14T05:11:13.315Z,79.79
2022-08-14T05:14:45.408Z,79.13
2022-08-14T05:17:53.857Z,79.01
2022-08-14T05:21:57.614Z,78.49
2022-08-14T05:24:29.010Z,77.56
2022-08-14T05:27:32.201Z,76.26
2022-08-14T05:30:36.154Z,76.08
2022-08-14T05:33:40.358Z,76.02
2022-08-14T05:36:50.545Z,75.47
2022-08-14T05:40:11.225Z,74.85
2022-08-14T05:43:16.515Z,74.61
2022-08-14T05:46:23.845Z,74.43
2022-08-14T05:49:33.183Z,73.88
2022-08-14T05:52:39.316Z,73.68
2022-08-14T05:55:44.460Z,73.18
2022-08-14T05:58:48.282Z,72.96
2022-08-14T06:01:51.193Z,72.68
2022-08-14T06:04:54.154Z,72.27
2022-08-14T06:08:02.718Z,71.98
2022-08-14T06:11:14.913Z,71.22
2022-08-14T06:14:24.194Z,70.67
2022-08-14T06:17:27.758Z,70.51
2022-08-14T06:20:42.220Z,69.75
2022-08-14T06:23:49.036Z,69.65
2022-08-14T06:26:56.670Z,69.19
2022-08-14T06:30:10.857Z,69.08
2022-08-14T06:33:15.792Z,68.76
2022-08-14T06:36:19.483Z,68.54
2022-08-14T06:39:37.402Z,67.31
2022-08-14T06:42:42.848Z,66.74
2022-08-14T06:45:54.442Z,65.69
2022-08-14T06:49:01.356Z,66.60
2022-08-14T06:52:05.041Z,65.00
2022-08-14T06:55:10.301Z,63.86
2022-08-14T06:58:28.448Z,64.22
2022-08-14T07:01:56.651Z,64.18
2022-08-14T07:05:23.971Z,64.33
2022-08-14T07:08:31.525Z,62.16
2022-08-14T07:11:34.823Z,62.08
2022-08-14T07:14:38.580Z,60.98
2022-08-14T07:17:51.940Z,60.42
2022-08-14T07:20:58.679Z,59.26
2022-08-14T07:24:01.223Z,59.19
2022-08-14T07:27:10.614Z,58.53
2022-08-14T07:30:34.619Z,56.99
2022-08-14T07:33:43.623Z,56.34
2022-08-14T07:36:58.046Z,54.82
2022-08-14T07:40:05.916Z,54.65
2022-08-14T07:43:14.812Z,53.78
2022-08-14T07:46:21.238Z,52.99
2022-08-14T07:49:41.771Z,52.99
2022-08-14T07:52:48.311Z,52.09
2022-08-14T07:56:00.526Z,51.06
2022-08-14T07:59:17.065Z,51.91
2022-08-14T08:02:21.907Z,50.32
2022-08-14T08:05:28.048Z,50.27
2022-08-14T08:08:32.618Z,49.24
2022-08-14T08:11:37.704Z,48.30
2022-08-14T08:14:56.441Z,47.91
2022-08-14T08:18:08.970Z,47.00
2022-08-14T08:21:27.163Z,46.15
2022-08-14T08:24:37.086Z,45.22
2022-08-14T08:27:44.605Z,45.22
2022-08-14T08:31:00.171Z,45.05
2022-08-14T08:34:06.658Z,44.03
2022-08-14T08:37:17.607Z,43.50
2022-08-14T08:40:31.189Z,42.05
2022-08-14T08:43:38.229Z,41.64
2022-08-14T08:46:45.569Z,40.50
2022-08-14T08:49:59.712Z,41.09
2022-08-14T08:53:06.277Z,39.56
2022-08-14T08:56:10.130Z,39.11
2022-08-14T08:59:34.408Z,37.99
2022-08-14T09:02:39.339Z,37.79
2022-08-14T09:06:53.891Z,38.01
2022-08-14T09:09:33.905Z,37.78
2022-08-14T09:12:56.374Z,36.57
2022-08-14T09:16:18.673Z,36.83
2022-08-14T09:19:23.609Z,38.37
2022-08-14T09:22:36.133Z,39.84
2022-08-14T09:25:59.773Z,37.42
2022-08-14T09:29:07.009Z,38.50
2022-08-14T09:32:58.135Z,39.08
2022-08-14T09:36:21.190Z,40.56
2022-08-14T09:39:44.626Z,40.90
2022-08-14T09:42:59.502Z,40.31
2022-08-14T09:46:07.849Z,41.53
2022-08-14T09:49:16.695Z,41.93
2022-08-14T09:52:23.637Z,41.80
2022-08-14T09:55:42.667Z,42.22
2022-08-14T09:58:47.393Z,41.13
2022-08-14T10:01:54.067Z,41.09
2022-08-14T10:05:01.148Z,40.70
2022-08-14T10:08:06.254Z,41.14
2022-08-14T10:11:34.999Z,41.74
2022-08-14T10:14:39.960Z,42.25
2022-08-14T10:17:46.342Z,41.22
2022-08-14T10:21:01.814Z,39.76
2022-08-14T10:24:08.891Z,42.04
2022-08-14T10:27:18.451Z,42.71
2022-08-14T10:30:25.738Z,43.80
2022-08-14T10:33:33.711Z,42.54
2022-08-14T10:36:41.275Z,42.56
2022-08-14T10:40:10.575Z,43.43
2022-08-14T10:43:23.389Z,41.57
2022-08-14T10:47:40.379Z,43.04
2022-08-14T10:49:59.654Z,43.11
2022-08-14T10:53:05.581Z,42.84
2022-08-14T10:56:21.994Z,41.35
2022-08-14T10:59:45.766Z,40.37
2022-08-14T11:03:04.198Z,40.21
2022-08-14T11:06:19.967Z,41.31
2022-08-14T11:09:23.576Z,38.79
2022-08-14T11:12:50.738Z,38.72
2022-08-14T11:16:01.061Z,40.30
2022-08-14T11:19:06.495Z,39.08
2022-08-14T11:22:15.473Z,38.40
2022-08-14T11:25:53.388Z,37.34
2022-08-14T11:28:59.859Z,36.05
2022-08-14T11:32:04.552Z,33.45
2022-08-14T11:35:13.585Z,31.54
2022-08-14T11:38:18.348Z,32.47
2022-08-14T11:41:24.726Z,33.87
2022-08-14T11:44:46.476Z,34.34
2022-08-14T11:48:13.410Z,35.34
2022-08-14T11:51:18.148Z,37.76
2022-08-14T11:54:33.922Z,37.23
2022-08-14T11:57:39.733Z,36.21
2022-08-14T12:00:48.472Z,35.98
2022-08-14T12:03:57.177Z,36.33
2022-08-14T12:07:01.797Z,36.64
2022-08-14T12:10:25.516Z,36.68
2022-08-14T12:13:34.977Z,36.64
2022-08-14T12:16:40.152Z,35.40
2022-08-14T12:19:59.389Z,35.90
2022-08-14T12:23:08.016Z,34.57
2022-08-14T12:26:39.616Z,34.02
2022-08-14T12:29:54.104Z,34.01
2022-08-14T12:32:58.775Z,32.50
2022-08-14T12:36:08.562Z,31.55
2022-08-14T12:39:24.164Z,29.98
2022-08-14T12:42:38.669Z,30.06
2022-08-14T12:45:51.274Z,29.55
2022-08-14T12:48:57.213Z,28.97
2022-08-14T12:52:08.274Z,28.71
2022-08-14T12:55:22.149Z,28.16
2022-08-14T12:58:51.429Z,29.41
2022-08-14T13:02:03.079Z,30.15
2022-08-14T13:05:14.987Z,30.50
2022-08-14T13:08:34.177Z,28.85
2022-08-14T13:11:45.098Z,28.25
2022-08-14T13:14:50.745Z,27.03
2022-08-14T13:17:57.039Z,26.54
2022-08-14T13:21:06.997Z,26.85
2022-08-14T13:24:16.361Z,26.93
2022-08-14T13:27:25.028Z,26.76
2022-08-14T13:30:33.531Z,27.44
2022-08-14T13:33:37.974Z,27.47
2022-08-14T13:36:54.772Z,26.65
2022-08-14T13:40:06.378Z,26.91
2022-08-14T13:43:09.782Z,25.97
2022-08-14T13:46:14.994Z,25.47
2022-08-14T13:49:19.875Z,25.20
2022-08-14T13:52:52.555Z,25.47
2022-08-14T13:55:58.974Z,25.97
2022-08-14T13:59:05.473Z,26.15
2022-08-14T14:02:08.783Z,26.48
2022-08-14T14:05:19.531Z,25.82
2022-08-14T14:08:46.429Z,25.36
2022-08-14T14:11:53.112Z,25.88
2022-08-14T14:14:56.071Z,26.91
2022-08-14T14:18:00.270Z,26.64
2022-08-14T14:21:06.561Z,26.36
2022-08-14T14:24:16.239Z,25.42
2022-08-14T14:30:53.300Z,26.56
2022-08-14T14:34:07.637Z,27.52
2022-08-14T14:37:27.292Z,28.14
2022-08-14T14:40:53.751Z,27.34
2022-08-14T14:44:01.379Z,26.25
2022-08-14T14:47:10.473Z,26.34
2022-08-14T14:50:17.178Z,26.35
2022-08-14T14:53:21.035Z,26.05
2022-08-14T14:56:50.605Z,25.33
2022-08-14T14:59:53.793Z,26.64
2022-08-14T15:02:59.588Z,25.64
2022-08-14T15:06:04.460Z,25.54
2022-08-14T15:09:11.057Z,25.88
2022-08-14T15:12:55.345Z,26.21
2022-08-14T15:15:49.917Z,25.81
2022-08-14T15:18:57.362Z,25.76
2022-08-14T15:22:02.411Z,25.18
2022-08-14T15:25:07.693Z,25.70
2022-08-14T15:28:20.844Z,26.08
2022-08-14T15:31:24.955Z,25.76
2022-08-14T15:34:43.402Z,27.20
2022-08-14T15:37:49.820Z,27.74
2022-08-14T15:41:08.553Z,27.98
2022-08-14T15:44:25.330Z,28.49
2022-08-14T15:47:33.027Z,28.98
2022-08-14T15:50:36.495Z,28.75
2022-08-14T15:53:39.928Z,29.15
2022-08-14T15:57:22.898Z,29.33
2022-08-14T16:00:49.469Z,29.45
2022-08-14T16:03:56.504Z,29.34
2022-08-14T16:07:00.051Z,28.45
2022-08-14T16:10:28.421Z,29.60
2022-08-14T16:13:41.593Z,29.91
2022-08-14T16:16:50.180Z,29.67
2022-08-14T16:19:54.503Z,30.19
2022-08-14T16:23:00.587Z,30.20
2022-08-14T16:26:04.750Z,30.39
2022-08-14T16:29:12.409Z,29.62
2022-08-14T16:32:35.810Z,30.75
2022-08-14T16:35:55.476Z,30.42
2022-08-14T16:39:06.398Z,30.42
2022-08-14T16:42:38.909Z,30.10
2022-08-14T16:45:34.794Z,30.44
2022-08-14T16:48:55.660Z,30.53
2022-08-14T16:52:24.933Z,32.11
2022-08-14T16:55:30.031Z,32.10
2022-08-14T16:58:35.272Z,32.55
2022-08-14T17:01:46.210Z,32.83
2022-08-14T17:04:49.398Z,34.37
2022-08-14T17:08:32.532Z,34.12
2022-08-14T17:11:34.055Z,34.12
2022-08-14T17:14:51.245Z,34.42
2022-08-14T17:17:58.303Z,35.10
2022-08-14T17:21:31.395Z,36.07
2022-08-14T17:24:56.244Z,36.13
2022-08-14T17:28:49.996Z,36.89
2022-08-14T17:31:58.876Z,37.22
2022-08-14T17:35:10.230Z,37.63
2022-08-14T17:42:02.847Z,38.18
2022-08-14T17:45:07.034Z,38.38
2022-08-14T17:49:09.952Z,39.24
2022-08-14T17:52:07.773Z,39.12
2022-08-14T17:56:01.516Z,39.46
2022-08-14T17:58:46.516Z,39.77
2022-08-14T18:01:52.702Z,40.11
2022-08-14T18:05:03.171Z,40.37
2022-08-14T18:08:34.272Z,39.87
2022-08-14T18:11:45.557Z,40.13
2022-08-14T18:14:53.171Z,40.05
2022-08-14T18:18:06.150Z,39.43
2022-08-14T18:21:39.831Z,39.26
2022-08-14T18:24:35.543Z,39.53
2022-08-14T18:27:44.305Z,39.33
2022-08-14T18:30:58.405Z,39.10
2022-08-14T18:34:31.161Z,39.32
2022-08-14T18:37:36.111Z,39.07
2022-08-14T18:40:40.695Z,39.21
2022-08-14T18:43:59.142Z,39.97
2022-08-14T18:47:10.103Z,40.23
2022-08-14T18:50:32.509Z,40.93
2022-08-14T18:53:56.149Z,41.02
2022-08-14T18:57:02.338Z,41.87
2022-08-14T19:00:35.388Z,42.07
2022-08-14T19:03:38.567Z,42.21
2022-08-14T19:06:55.735Z,42.58
2022-08-14T19:10:07.845Z,42.11
2022-08-14T19:13:21.828Z,42.48
2022-08-14T19:16:36.958Z,42.73
2022-08-14T19:19:40.344Z,42.82
2022-08-14T19:22:48.695Z,42.71
2022-08-14T19:25:58.247Z,43.23
2022-08-14T19:29:26.313Z,43.60
2022-08-14T19:32:40.202Z,43.98
2022-08-14T19:35:49.746Z,44.22
2022-08-14T19:39:02.279Z,44.55
2022-08-14T19:42:10.539Z,45.19
2022-08-14T19:45:16.271Z,45.97
2022-08-14T19:48:22.791Z,46.17
2022-08-14T19:51:32.725Z,46.88
2022-08-14T19:54:39.961Z,47.41
2022-08-14T19:57:57.968Z,48.21
2022-08-14T20:01:08.434Z,48.39
2022-08-14T20:04:46.767Z,48.33
2022-08-14T20:07:59.581Z,48.79
2022-08-14T20:11:21.100Z,49.24
2022-08-14T20:14:36.151Z,49.67
2022-08-14T20:17:41.021Z,49.95
2022-08-14T20:20:46.306Z,49.99
2022-08-14T20:23:50.022Z,50.16
2022-08-14T20:27:33.606Z,50.49
2022-08-14T20:30:41.284Z,50.98
2022-08-14T20:34:19.266Z,51.00
2022-08-14T20:37:36.660Z,50.15
2022-08-14T20:40:50.586Z,49.51
2022-08-14T20:44:15.961Z,50.07
2022-08-14T20:47:24.078Z,50.90
2022-08-14T20:50:29.873Z,51.26
2022-08-14T20:53:37.238Z,51.20
2022-08-14T20:56:47.779Z,50.84
2022-08-14T20:59:56.619Z,50.44
2022-08-14T21:03:32.089Z,51.23
2022-08-14T21:07:23.267Z,51.53
2022-08-14T21:10:33.257Z,51.40
2022-08-14T21:14:24.849Z,51.96
2022-08-14T21:16:59.243Z,52.21
2022-08-14T21:20:25.644Z,52.58
2022-08-14T21:23:36.007Z,52.82
2022-08-14T21:27:04.334Z,53.18
2022-08-14T21:30:21.058Z,53.06
2022-08-14T21:33:25.322Z,53.08
2022-08-14T21:36:30.967Z,52.85
2022-08-14T21:39:35.690Z,52.33
2022-08-14T21:42:42.089Z,53.02
2022-08-14T21:45:53.646Z,52.89
2022-08-14T21:49:33.934Z,53.27
2022-08-14T21:52:51.904Z,53.61
2022-08-14T21:56:05.946Z,54.29
2022-08-14T21:59:19.405Z,54.77
2022-08-14T22:02:33.031Z,55.55
2022-08-14T22:05:42.170Z,55.94
2022-08-14T22:08:46.731Z,56.25
2022-08-14T22:11:56.878Z,56.18
2022-08-14T22:15:02.336Z,55.92
2022-08-14T22:18:06.162Z,55.83
2022-08-14T22:21:16.453Z,55.50
2022-08-14T22:24:38.315Z,55.98
2022-08-14T22:27:55.383Z,56.56
2022-08-14T22:31:00.494Z,56.17
2022-08-14T22:34:05.310Z,56.42
2022-08-14T22:37:08.865Z,56.23
2022-08-14T22:40:45.803Z,56.17
2022-08-14T22:43:38.952Z,56.23
2022-08-14T22:46:43.325Z,55.97
2022-08-14T22:50:32.127Z,56.04
2022-08-14T22:53:13.095Z,55.82
2022-08-14T22:56:20.627Z,55.94
2022-08-14T22:59:36.769Z,56.49
2022-08-14T23:02:43.313Z,56.93
2022-08-14T23:05:52.669Z,57.23
2022-08-14T23:09:35.423Z,57.97
2022-08-14T23:12:28.611Z,58.01
2022-08-14T23:15:34.084Z,58.45
2022-08-14T23:18:38.969Z,58.68
2022-08-14T23:21:46.267Z,59.22
2022-08-14T23:24:53.000Z,59.65
2022-08-14T23:28:02.433Z,60.15
2022-08-14T23:31:10.163Z,60.41
2022-08-14T23:34:20.646Z,60.71
2022-08-14T23:37:27.058Z,61.01
2022-08-14T23:40:31.392Z,61.16
2022-08-14T23:43:39.420Z,61.35
2022-08-14T23:46:44.176Z,61.50
2022-08-14T23:50:01.471Z,62.12
2022-08-14T23:53:47.783Z,62.10
2022-08-14T23:57:00.016Z,62.41
